sensor_id;sensor_type;location;lat;lon;timestamp;pressure;altitude;pressure_sealevel;temperature;humidity
77431;BME280;66498;48.564;19.272;2024-01-07T00:01:00;96182.44;;;5.36;100.00
77431;BME280;66498;48.564;19.272;2024-01-07T00:03:26;96189.59;;;5.40;100.00
77431;BME280;66498;48.564;19.272;2024-01-07T00:05:51;96179.38;;;5.39;100.00
77431;BME280;66498;48.564;19.272;2024-01-07T00:08:16;96179.19;;;5.40;100.00
77431;BME280;66498;48.564;19.272;2024-01-07T00:10:42;96178.38;;;5.40;100.00
77431;BME280;66498;48.564;19.272;2024-01-07T00:13:07;96179.03;;;5.35;100.00
77431;BME280;66498;48.564;19.272;2024-01-07T00:15:33;96182.16;;;5.26;100.00
77431;BME280;66498;48.564;19.272;2024-01-07T00:17:58;96182.16;;;5.26;100.00
77431;BME280;66498;48.564;19.272;2024-01-07T00:20:24;96178.44;;;5.21;100.00
77431;BME280;66498;48.564;19.272;2024-01-07T00:22:49;96172.47;;;5.33;100.00
77431;BME280;66498;48.564;19.272;2024-01-07T00:25:15;96176.66;;;5.34;100.00
77431;BME280;66498;48.564;19.272;2024-01-07T00:27:40;96177.03;;;5.37;100.00
77431;BME280;66498;48.564;19.272;2024-01-07T00:30:06;96176.59;;;5.40;100.00
77431;BME280;66498;48.564;19.272;2024-01-07T00:32:32;96172.91;;;5.30;100.00
77431;BME280;66498;48.564;19.272;2024-01-07T00:34:57;96177.56;;;5.28;100.00
77431;BME280;66498;48.564;19.272;2024-01-07T00:37:22;96179.72;;;5.31;100.00
77431;BME280;66498;48.564;19.272;2024-01-07T00:39:48;96183.47;;;5.35;100.00
77431;BME280;66498;48.564;19.272;2024-01-07T00:42:13;96176.78;;;5.39;100.00
77431;BME280;66498;48.564;19.272;2024-01-07T00:44:39;96174.78;;;5.41;100.00
77431;BME280;66498;48.564;19.272;2024-01-07T00:47:04;96167.59;;;5.36;100.00
77431;BME280;66498;48.564;19.272;2024-01-07T00:49:30;96170.69;;;5.33;100.00
77431;BME280;66498;48.564;19.272;2024-01-07T00:51:56;96170.44;;;5.35;100.00
77431;BME280;66498;48.564;19.272;2024-01-07T00:54:21;96172.25;;;5.34;100.00
77431;BME280;66498;48.564;19.272;2024-01-07T00:56:47;96172.25;;;5.34;100.00
77431;BME280;66498;48.564;19.272;2024-01-07T00:59:12;96177.81;;;5.38;100.00
77431;BME280;66498;48.564;19.272;2024-01-07T01:01:38;96178.94;;;5.42;100.00
77431;BME280;66498;48.564;19.272;2024-01-07T01:04:03;96177.13;;;5.42;100.00
77431;BME280;66498;48.564;19.272;2024-01-07T01:06:29;96170.28;;;5.30;100.00
77431;BME280;66498;48.564;19.272;2024-01-07T01:08:56;96167.25;;;5.33;100.00
77431;BME280;66498;48.564;19.272;2024-01-07T01:11:21;96170.88;;;5.32;100.00
77431;BME280;66498;48.564;19.272;2024-01-07T01:13:47;96166.47;;;5.32;100.00
77431;BME280;66498;48.564;19.272;2024-01-07T01:16:12;96162.06;;;5.33;100.00
77431;BME280;66498;48.564;19.272;2024-01-07T01:18:38;96165.25;;;5.35;100.00
77431;BME280;66498;48.564;19.272;2024-01-07T01:21:04;96171.38;;;5.40;100.00
77431;BME280;66498;48.564;19.272;2024-01-07T01:23:29;96163.88;;;5.32;100.00
77431;BME280;66498;48.564;19.272;2024-01-07T01:25:55;96166.56;;;5.26;100.00
77431;BME280;66498;48.564;19.272;2024-01-07T01:28:20;96165.91;;;5.30;100.00
77431;BME280;66498;48.564;19.272;2024-01-07T01:30:45;96161.75;;;5.41;100.00
77431;BME280;66498;48.564;19.272;2024-01-07T01:33:11;96158.47;;;5.34;100.00
77431;BME280;66498;48.564;19.272;2024-01-07T01:35:37;96160.63;;;5.37;100.00
77431;BME280;66498;48.564;19.272;2024-01-07T01:38:02;96155.50;;;5.30;100.00
77431;BME280;66498;48.564;19.272;2024-01-07T01:40:28;96154.56;;;5.25;100.00
77431;BME280;66498;48.564;19.272;2024-01-07T01:42:53;96155.16;;;5.27;100.00
77431;BME280;66498;48.564;19.272;2024-01-07T01:45:18;96156.19;;;5.37;100.00
77431;BME280;66498;48.564;19.272;2024-01-07T01:47:45;96159.81;;;5.36;100.00
77431;BME280;66498;48.564;19.272;2024-01-07T01:50:11;96159.72;;;5.43;100.00
77431;BME280;66498;48.564;19.272;2024-01-07T01:52:37;96162.16;;;5.68;100.00
77431;BME280;66498;48.564;19.272;2024-01-07T01:55:03;96159.91;;;5.72;100.00
77431;BME280;66498;48.564;19.272;2024-01-07T01:57:33;96157.97;;;5.67;100.00
77431;BME280;66498;48.564;19.272;2024-01-07T02:00:03;96152.88;;;5.84;100.00
77431;BME280;66498;48.564;19.272;2024-01-07T02:02:30;96153.34;;;5.81;100.00
77431;BME280;66498;48.564;19.272;2024-01-07T02:04:57;96164.53;;;5.69;100.00
77431;BME280;66498;48.564;19.272;2024-01-07T02:07:24;96154.50;;;5.85;100.00
77431;BME280;66498;48.564;19.272;2024-01-07T02:09:50;96154.72;;;5.83;100.00
77431;BME280;66498;48.564;19.272;2024-01-07T02:12:15;96156.28;;;5.73;100.00
77431;BME280;66498;48.564;19.272;2024-01-07T02:14:41;96147.09;;;5.58;100.00
77431;BME280;66498;48.564;19.272;2024-01-07T02:17:07;96152.97;;;5.65;100.00
77431;BME280;66498;48.564;19.272;2024-01-07T02:19:32;96156.03;;;5.51;100.00
77431;BME280;66498;48.564;19.272;2024-01-07T02:21:57;96157.00;;;5.38;100.00
77431;BME280;66498;48.564;19.272;2024-01-07T02:24:23;96154.59;;;5.36;100.00
77431;BME280;66498;48.564;19.272;2024-01-07T02:26:49;96148.94;;;5.28;100.00
77431;BME280;66498;48.564;19.272;2024-01-07T02:29:14;96144.41;;;5.35;100.00
77431;BME280;66498;48.564;19.272;2024-01-07T02:31:40;96141.22;;;5.21;100.00
77431;BME280;66498;48.564;19.272;2024-01-07T02:34:05;96142.16;;;5.27;100.00
77431;BME280;66498;48.564;19.272;2024-01-07T02:36:30;96145.31;;;5.29;100.00
77431;BME280;66498;48.564;19.272;2024-01-07T02:38:56;96145.56;;;5.39;100.00
77431;BME280;66498;48.564;19.272;2024-01-07T02:41:21;96141.22;;;5.33;100.00
77431;BME280;66498;48.564;19.272;2024-01-07T02:43:50;96146.59;;;5.50;100.00
77431;BME280;66498;48.564;19.272;2024-01-07T02:46:16;96147.38;;;5.50;100.00
77431;BME280;66498;48.564;19.272;2024-01-07T02:48:42;96142.75;;;5.40;100.00
77431;BME280;66498;48.564;19.272;2024-01-07T02:51:08;96143.22;;;5.49;100.00
77431;BME280;66498;48.564;19.272;2024-01-07T02:53:33;96134.88;;;5.70;100.00
77431;BME280;66498;48.564;19.272;2024-01-07T02:55:59;96131.56;;;5.52;100.00
77431;BME280;66498;48.564;19.272;2024-01-07T02:58:25;96136.09;;;5.56;100.00
77431;BME280;66498;48.564;19.272;2024-01-07T03:00:50;96145.75;;;5.67;100.00
77431;BME280;66498;48.564;19.272;2024-01-07T03:03:16;96134.50;;;5.43;100.00
77431;BME280;66498;48.564;19.272;2024-01-07T03:05:41;96131.94;;;5.25;100.00
77431;BME280;66498;48.564;19.272;2024-01-07T03:08:07;96137.59;;;5.22;100.00
77431;BME280;66498;48.564;19.272;2024-01-07T03:10:33;96135.56;;;5.24;100.00
77431;BME280;66498;48.564;19.272;2024-01-07T03:13:00;96135.91;;;5.28;100.00
77431;BME280;66498;48.564;19.272;2024-01-07T03:15:25;96133.41;;;5.21;100.00
77431;BME280;66498;48.564;19.272;2024-01-07T03:17:51;96134.44;;;5.20;100.00
77431;BME280;66498;48.564;19.272;2024-01-07T03:20:16;96133.00;;;5.36;100.00
77431;BME280;66498;48.564;19.272;2024-01-07T03:22:42;96128.03;;;5.34;100.00
77431;BME280;66498;48.564;19.272;2024-01-07T03:25:07;96128.13;;;5.28;100.00
77431;BME280;66498;48.564;19.272;2024-01-07T03:27:33;96129.13;;;5.27;100.00
77431;BME280;66498;48.564;19.272;2024-01-07T03:29:58;96131.59;;;5.21;100.00
77431;BME280;66498;48.564;19.272;2024-01-07T03:32:24;96130.56;;;5.22;100.00
77431;BME280;66498;48.564;19.272;2024-01-07T03:34:49;96132.28;;;5.29;100.00
77431;BME280;66498;48.564;19.272;2024-01-07T03:37:15;96130.13;;;5.26;100.00
77431;BME280;66498;48.564;19.272;2024-01-07T03:39:42;96123.34;;;5.25;100.00
77431;BME280;66498;48.564;19.272;2024-01-07T03:42:07;96128.63;;;5.18;100.00
77431;BME280;66498;48.564;19.272;2024-01-07T03:44:37;96134.00;;;5.23;100.00
77431;BME280;66498;48.564;19.272;2024-01-07T03:47:04;96126.53;;;5.27;100.00
77431;BME280;66498;48.564;19.272;2024-01-07T03:49:30;96128.56;;;5.25;100.00
77431;BME280;66498;48.564;19.272;2024-01-07T03:51:55;96130.72;;;5.28;100.00
77431;BME280;66498;48.564;19.272;2024-01-07T03:54:21;96131.00;;;5.19;100.00
77431;BME280;66498;48.564;19.272;2024-01-07T03:56:46;96132.81;;;5.19;100.00
77431;BME280;66498;48.564;19.272;2024-01-07T03:59:11;96131.47;;;5.16;100.00
77431;BME280;66498;48.564;19.272;2024-01-07T04:01:37;96127.63;;;5.19;100.00
77431;BME280;66498;48.564;19.272;2024-01-07T04:04:03;96135.66;;;5.17;100.00
77431;BME280;66498;48.564;19.272;2024-01-07T04:06:28;96124.13;;;5.13;100.00
77431;BME280;66498;48.564;19.272;2024-01-07T04:08:54;96126.72;;;5.13;100.00
77431;BME280;66498;48.564;19.272;2024-01-07T04:11:19;96130.53;;;5.11;100.00
77431;BME280;66498;48.564;19.272;2024-01-07T04:13:45;96129.34;;;5.25;100.00
77431;BME280;66498;48.564;19.272;2024-01-07T04:16:20;96129.66;;;5.17;100.00
77431;BME280;66498;48.564;19.272;2024-01-07T04:18:48;96131.91;;;5.13;100.00
77431;BME280;66498;48.564;19.272;2024-01-07T04:21:14;96124.31;;;5.12;100.00
77431;BME280;66498;48.564;19.272;2024-01-07T04:23:39;96127.63;;;5.19;100.00
77431;BME280;66498;48.564;19.272;2024-01-07T04:26:09;96124.22;;;5.18;100.00
77431;BME280;66498;48.564;19.272;2024-01-07T04:28:34;96121.38;;;5.08;100.00
77431;BME280;66498;48.564;19.272;2024-01-07T04:31:00;96122.69;;;4.99;100.00
77431;BME280;66498;48.564;19.272;2024-01-07T04:33:25;96130.03;;;5.02;100.00
77431;BME280;66498;48.564;19.272;2024-01-07T04:35:51;96130.84;;;5.03;100.00
77431;BME280;66498;48.564;19.272;2024-01-07T04:38:16;96123.09;;;5.14;100.00
77431;BME280;66498;48.564;19.272;2024-01-07T04:40:42;96132.00;;;5.07;100.00
77431;BME280;66498;48.564;19.272;2024-01-07T04:43:07;96130.63;;;5.04;100.00
77431;BME280;66498;48.564;19.272;2024-01-07T04:45:32;96136.97;;;5.08;100.00
77431;BME280;66498;48.564;19.272;2024-01-07T04:47:58;96136.78;;;5.10;100.00
77431;BME280;66498;48.564;19.272;2024-01-07T04:50:23;96129.16;;;5.08;100.00
77431;BME280;66498;48.564;19.272;2024-01-07T04:52:49;96130.47;;;5.17;100.00
77431;BME280;66498;48.564;19.272;2024-01-07T04:55:14;96132.00;;;5.07;100.00
77431;BME280;66498;48.564;19.272;2024-01-07T04:57:40;96132.00;;;5.07;100.00
77431;BME280;66498;48.564;19.272;2024-01-07T05:00:06;96135.47;;;5.01;100.00
77431;BME280;66498;48.564;19.272;2024-01-07T05:02:31;96132.28;;;4.98;100.00
77431;BME280;66498;48.564;19.272;2024-01-07T05:04:57;96142.13;;;4.96;100.00
77431;BME280;66498;48.564;19.272;2024-01-07T05:07:22;96137.06;;;5.02;100.00
77431;BME280;66498;48.564;19.272;2024-01-07T05:09:48;96136.16;;;4.96;100.00
77431;BME280;66498;48.564;19.272;2024-01-07T05:12:13;96138.88;;;5.01;100.00
77431;BME280;66498;48.564;19.272;2024-01-07T05:14:40;96136.97;;;5.08;100.00
77431;BME280;66498;48.564;19.272;2024-01-07T05:17:06;96135.47;;;5.01;100.00
77431;BME280;66498;48.564;19.272;2024-01-07T05:19:31;96137.94;;;4.95;100.00
77431;BME280;66498;48.564;19.272;2024-01-07T05:21:58;96132.09;;;5.00;100.00
77431;BME280;66498;48.564;19.272;2024-01-07T05:24:23;96127.97;;;4.92;100.00
77431;BME280;66498;48.564;19.272;2024-01-07T05:26:48;96132.25;;;4.87;100.00
77431;BME280;66498;48.564;19.272;2024-01-07T05:29:14;96136.63;;;5.05;100.00
77431;BME280;66498;48.564;19.272;2024-01-07T05:31:40;96137.84;;;5.02;100.00
77431;BME280;66498;48.564;19.272;2024-01-07T05:34:05;96139.75;;;4.95;100.00
77431;BME280;66498;48.564;19.272;2024-01-07T05:36:31;96140.88;;;4.99;100.00
77431;BME280;66498;48.564;19.272;2024-01-07T05:38:57;96142.41;;;4.88;100.00
77431;BME280;66498;48.564;19.272;2024-01-07T05:41:22;96141.56;;;4.94;100.00
77431;BME280;66498;48.564;19.272;2024-01-07T05:43:47;96142.78;;;4.92;100.00
77431;BME280;66498;48.564;19.272;2024-01-07T05:46:13;96138.16;;;4.94;100.00
77431;BME280;66498;48.564;19.272;2024-01-07T05:48:47;96142.78;;;4.92;100.00
77431;BME280;66498;48.564;19.272;2024-01-07T05:51:13;96136.75;;;4.80;100.00
77431;BME280;66498;48.564;19.272;2024-01-07T05:53:39;96139.81;;;4.88;100.00
77431;BME280;66498;48.564;19.272;2024-01-07T05:56:05;96136.59;;;4.93;100.00
77431;BME280;66498;48.564;19.272;2024-01-07T05:58:31;96145.25;;;4.87;100.00
77431;BME280;66498;48.564;19.272;2024-01-07T06:00:57;96135.41;;;4.89;100.00
77431;BME280;66498;48.564;19.272;2024-01-07T06:03:22;96142.66;;;4.87;100.00
77431;BME280;66498;48.564;19.272;2024-01-07T06:05:48;96137.53;;;4.80;100.00
77431;BME280;66498;48.564;19.272;2024-01-07T06:08:13;96139.84;;;4.70;100.00
77431;BME280;66498;48.564;19.272;2024-01-07T06:10:40;96138.63;;;4.72;100.00
77431;BME280;66498;48.564;19.272;2024-01-07T06:13:06;96143.00;;;4.72;100.00
77431;BME280;66498;48.564;19.272;2024-01-07T06:15:32;96150.38;;;4.75;100.00
77431;BME280;66498;48.564;19.272;2024-01-07T06:17:58;96141.06;;;4.67;100.00
77431;BME280;66498;48.564;19.272;2024-01-07T06:20:23;96144.81;;;4.71;100.00
77431;BME280;66498;48.564;19.272;2024-01-07T06:22:49;96152.00;;;4.76;100.00
77431;BME280;66498;48.564;19.272;2024-01-07T06:25:15;96159.50;;;4.66;100.00
77431;BME280;66498;48.564;19.272;2024-01-07T06:27:41;96152.84;;;4.70;100.00
77431;BME280;66498;48.564;19.272;2024-01-07T06:30:07;96155.22;;;4.71;100.00
77431;BME280;66498;48.564;19.272;2024-01-07T06:32:34;96154.56;;;4.58;100.00
77431;BME280;66498;48.564;19.272;2024-01-07T06:35:00;96153.13;;;4.62;100.00
77431;BME280;66498;48.564;19.272;2024-01-07T06:37:26;96151.53;;;4.61;100.00
77431;BME280;66498;48.564;19.272;2024-01-07T06:39:54;96151.47;;;4.67;100.00
77431;BME280;66498;48.564;19.272;2024-01-07T06:42:20;96153.22;;;4.73;100.00
77431;BME280;66498;48.564;19.272;2024-01-07T06:44:45;96155.09;;;4.66;100.00
77431;BME280;66498;48.564;19.272;2024-01-07T06:47:11;96155.53;;;4.63;100.00
77431;BME280;66498;48.564;19.272;2024-01-07T06:49:36;96155.50;;;4.82;100.00
77431;BME280;66498;48.564;19.272;2024-01-07T06:52:02;96156.00;;;4.72;100.00
77431;BME280;66498;48.564;19.272;2024-01-07T06:54:28;96161.00;;;4.73;100.00
77431;BME280;66498;48.564;19.272;2024-01-07T06:56:53;96155.16;;;4.60;100.00
77431;BME280;66498;48.564;19.272;2024-01-07T06:59:18;96157.09;;;4.64;100.00
77431;BME280;66498;48.564;19.272;2024-01-07T07:01:44;96158.97;;;4.57;100.00
77431;BME280;66498;48.564;19.272;2024-01-07T07:04:09;96165.13;;;4.63;100.00
77431;BME280;66498;48.564;19.272;2024-01-07T07:06:35;96163.59;;;4.55;100.00
77431;BME280;66498;48.564;19.272;2024-01-07T07:09:00;96165.91;;;4.63;100.00
77431;BME280;66498;48.564;19.272;2024-01-07T07:11:26;96159.94;;;4.63;100.00
77431;BME280;66498;48.564;19.272;2024-01-07T07:13:51;96164.41;;;4.56;100.00
77431;BME280;66498;48.564;19.272;2024-01-07T07:16:17;96170.22;;;4.51;100.00
77431;BME280;66498;48.564;19.272;2024-01-07T07:18:42;96162.38;;;4.58;100.00
77431;BME280;66498;48.564;19.272;2024-01-07T07:21:08;96166.50;;;4.65;100.00
77431;BME280;66498;48.564;19.272;2024-01-07T07:23:33;96167.56;;;4.58;100.00
77431;BME280;66498;48.564;19.272;2024-01-07T07:25:59;96163.97;;;4.59;100.00
77431;BME280;66498;48.564;19.272;2024-01-07T07:28:24;96162.81;;;4.55;100.00
77431;BME280;66498;48.564;19.272;2024-01-07T07:30:50;96173.84;;;4.50;100.00
77431;BME280;66498;48.564;19.272;2024-01-07T07:33:15;96173.34;;;4.60;100.00
77431;BME280;66498;48.564;19.272;2024-01-07T07:35:41;96178.47;;;4.66;100.00
77431;BME280;66498;48.564;19.272;2024-01-07T07:38:07;96180.06;;;4.49;100.00
77431;BME280;66498;48.564;19.272;2024-01-07T07:40:33;96182.31;;;4.45;100.00
77431;BME280;66498;48.564;19.272;2024-01-07T07:42:58;96177.91;;;4.46;100.00
77431;BME280;66498;48.564;19.272;2024-01-07T07:45:23;96185.28;;;4.49;100.00
77431;BME280;66498;48.564;19.272;2024-01-07T07:47:49;96180.56;;;4.58;100.00
77431;BME280;66498;48.564;19.272;2024-01-07T07:50:14;96184.38;;;4.55;100.00
77431;BME280;66498;48.564;19.272;2024-01-07T07:52:43;96191.88;;;4.45;100.00
77431;BME280;66498;48.564;19.272;2024-01-07T07:55:10;96192.47;;;4.47;100.00
77431;BME280;66498;48.564;19.272;2024-01-07T07:57:35;96192.28;;;4.48;100.00
77431;BME280;66498;48.564;19.272;2024-01-07T08:00:01;96186.91;;;4.43;100.00
77431;BME280;66498;48.564;19.272;2024-01-07T08:02:30;96187.81;;;4.56;100.00
77431;BME280;66498;48.564;19.272;2024-01-07T08:04:55;96193.44;;;4.53;100.00
77431;BME280;66498;48.564;19.272;2024-01-07T08:07:21;96189.44;;;4.50;100.00
77431;BME280;66498;48.564;19.272;2024-01-07T08:09:46;96198.69;;;4.46;100.00
77431;BME280;66498;48.564;19.272;2024-01-07T08:12:12;96204.50;;;4.41;100.00
77431;BME280;66498;48.564;19.272;2024-01-07T08:14:38;96202.50;;;4.43;100.00
77431;BME280;66498;48.564;19.272;2024-01-07T08:17:09;96207.94;;;4.42;100.00
77431;BME280;66498;48.564;19.272;2024-01-07T08:19:36;96210.94;;;4.39;100.00
77431;BME280;66498;48.564;19.272;2024-01-07T08:22:01;96206.53;;;4.39;100.00
77431;BME280;66498;48.564;19.272;2024-01-07T08:24:27;96215.56;;;4.37;100.00
77431;BME280;66498;48.564;19.272;2024-01-07T08:26:53;96214.53;;;4.38;100.00
77431;BME280;66498;48.564;19.272;2024-01-07T08:29:18;96215.34;;;4.38;100.00
77431;BME280;66498;48.564;19.272;2024-01-07T08:31:44;96220.66;;;4.25;100.00
77431;BME280;66498;48.564;19.272;2024-01-07T08:34:09;96221.91;;;4.41;100.00
77431;BME280;66498;48.564;19.272;2024-01-07T08:36:35;96226.13;;;4.42;100.00
77431;BME280;66498;48.564;19.272;2024-01-07T08:39:00;96226.97;;;4.36;100.00
77431;BME280;66498;48.564;19.272;2024-01-07T08:41:26;96224.47;;;4.22;100.00
77431;BME280;66498;48.564;19.272;2024-01-07T08:43:52;96228.88;;;4.22;100.00
77431;BME280;66498;48.564;19.272;2024-01-07T08:46:20;96232.41;;;4.27;100.00
77431;BME280;66498;48.564;19.272;2024-01-07T08:48:46;96230.69;;;4.21;100.00
77431;BME280;66498;48.564;19.272;2024-01-07T08:51:12;96230.88;;;4.20;100.00
77431;BME280;66498;48.564;19.272;2024-01-07T08:53:39;96232.47;;;4.21;100.00
77431;BME280;66498;48.564;19.272;2024-01-07T08:56:05;96238.78;;;4.32;100.00
77431;BME280;66498;48.564;19.272;2024-01-07T08:58:32;96236.44;;;4.23;100.00
77431;BME280;66498;48.564;19.272;2024-01-07T09:00:57;96239.34;;;4.34;100.00
77431;BME280;66498;48.564;19.272;2024-01-07T09:03:23;96237.50;;;4.16;100.00
77431;BME280;66498;48.564;19.272;2024-01-07T09:05:48;96239.00;;;4.30;100.00
77431;BME280;66498;48.564;19.272;2024-01-07T09:08:13;96233.16;;;4.35;100.00
77431;BME280;66498;48.564;19.272;2024-01-07T09:10:40;96241.22;;;4.26;100.00
77431;BME280;66498;48.564;19.272;2024-01-07T09:13:05;96243.69;;;4.21;100.00
77431;BME280;66498;48.564;19.272;2024-01-07T09:15:31;96245.44;;;4.21;100.00
77431;BME280;66498;48.564;19.272;2024-01-07T09:17:56;96250.28;;;4.17;100.00
77431;BME280;66498;48.564;19.272;2024-01-07T09:20:23;96244.25;;;4.23;100.00
77431;BME280;66498;48.564;19.272;2024-01-07T09:22:49;96245.44;;;4.21;100.00
77431;BME280;66498;48.564;19.272;2024-01-07T09:25:14;96240.16;;;4.34;100.00
77431;BME280;66498;48.564;19.272;2024-01-07T09:27:40;96244.03;;;4.25;100.00
77431;BME280;66498;48.564;19.272;2024-01-07T09:30:06;96243.63;;;4.28;100.00
77431;BME280;66498;48.564;19.272;2024-01-07T09:32:32;96244.63;;;4.27;100.00
77431;BME280;66498;48.564;19.272;2024-01-07T09:34:57;96247.13;;;4.15;100.00
77431;BME280;66498;48.564;19.272;2024-01-07T09:37:23;96237.56;;;4.09;100.00
77431;BME280;66498;48.564;19.272;2024-01-07T09:39:49;96249.75;;;4.09;100.00
77431;BME280;66498;48.564;19.272;2024-01-07T09:42:16;96241.19;;;4.08;100.00
77431;BME280;66498;48.564;19.272;2024-01-07T09:44:42;96237.78;;;4.08;100.00
77431;BME280;66498;48.564;19.272;2024-01-07T09:47:13;96240.13;;;4.16;100.00
77431;BME280;66498;48.564;19.272;2024-01-07T09:49:39;96236.81;;;4.02;100.00
77431;BME280;66498;48.564;19.272;2024-01-07T09:52:06;96236.56;;;4.10;100.00
77431;BME280;66498;48.564;19.272;2024-01-07T09:54:32;96225.78;;;4.07;100.00
77431;BME280;66498;48.564;19.272;2024-01-07T09:57:02;96231.47;;;3.97;100.00
77431;BME280;66498;48.564;19.272;2024-01-07T09:59:29;96230.72;;;3.90;100.00
77431;BME280;66498;48.564;19.272;2024-01-07T10:01:55;96221.94;;;3.91;100.00
77431;BME280;66498;48.564;19.272;2024-01-07T10:04:22;96223.75;;;3.84;100.00
77431;BME280;66498;48.564;19.272;2024-01-07T10:06:50;96224.91;;;3.94;100.00
77431;BME280;66498;48.564;19.272;2024-01-07T10:09:18;96221.75;;;3.86;100.00
77431;BME280;66498;48.564;19.272;2024-01-07T10:11:44;96223.28;;;3.93;100.00
77431;BME280;66498;48.564;19.272;2024-01-07T10:14:10;96227.19;;;3.84;100.00
77431;BME280;66498;48.564;19.272;2024-01-07T10:16:36;96214.38;;;3.83;100.00
77431;BME280;66498;48.564;19.272;2024-01-07T10:19:01;96223.28;;;3.93;100.00
77431;BME280;66498;48.564;19.272;2024-01-07T10:21:27;96220.31;;;3.90;100.00
77431;BME280;66498;48.564;19.272;2024-01-07T10:26:35;96220.13;;;3.91;100.00
77431;BME280;66498;48.564;19.272;2024-01-07T10:29:01;96216.94;;;3.89;100.00
77431;BME280;66498;48.564;19.272;2024-01-07T10:31:28;96220.56;;;3.88;100.00
77431;BME280;66498;48.564;19.272;2024-01-07T10:33:56;96215.72;;;3.92;100.00
77431;BME280;66498;48.564;19.272;2024-01-07T10:36:22;96214.81;;;3.79;100.00
77431;BME280;66498;48.564;19.272;2024-01-07T10:38:49;96214.75;;;3.86;100.00
77431;BME280;66498;48.564;19.272;2024-01-07T10:41:18;96208.56;;;3.87;100.00
77431;BME280;66498;48.564;19.272;2024-01-07T10:43:48;96211.66;;;3.77;100.00
77431;BME280;66498;48.564;19.272;2024-01-07T10:46:15;96218.41;;;3.78;100.00
77431;BME280;66498;48.564;19.272;2024-01-07T10:48:54;96214.16;;;3.91;100.00
77431;BME280;66498;48.564;19.272;2024-01-07T10:51:21;96211.00;;;3.82;100.00
77431;BME280;66498;48.564;19.272;2024-01-07T10:53:52;96214.34;;;3.89;100.00
77431;BME280;66498;48.564;19.272;2024-01-07T10:56:24;96201.00;;;3.86;100.00
77431;BME280;66498;48.564;19.272;2024-01-07T10:58:53;96209.38;;;3.88;100.00
77431;BME280;66498;48.564;19.272;2024-01-07T11:01:20;96210.63;;;3.78;100.00
77431;BME280;66498;48.564;19.272;2024-01-07T11:04:13;96209.66;;;3.73;100.00
77431;BME280;66498;48.564;19.272;2024-01-07T11:06:51;96214.00;;;3.79;100.00
77431;BME280;66498;48.564;19.272;2024-01-07T11:09:40;96207.66;;;3.75;100.00
77431;BME280;66498;48.564;19.272;2024-01-07T11:12:10;96206.03;;;3.81;100.00
77431;BME280;66498;48.564;19.272;2024-01-07T11:14:43;96204.75;;;3.90;100.00
77431;BME280;66498;48.564;19.272;2024-01-07T11:20:17;96199.13;;;3.93;100.00
77431;BME280;66498;48.564;19.272;2024-01-07T11:22:44;96199.59;;;3.83;100.00
77431;BME280;66498;48.564;19.272;2024-01-07T11:25:31;96201.00;;;3.86;100.00
77431;BME280;66498;48.564;19.272;2024-01-07T11:27:58;96204.59;;;3.85;100.00
77431;BME280;66498;48.564;19.272;2024-01-07T11:30:26;96194.63;;;3.82;100.00
77431;BME280;66498;48.564;19.272;2024-01-07T11:32:59;96195.97;;;3.91;100.00
77431;BME280;66498;48.564;19.272;2024-01-07T11:35:54;96200.03;;;3.80;100.00
77431;BME280;66498;48.564;19.272;2024-01-07T11:38:21;96199.78;;;3.88;100.00
77431;BME280;66498;48.564;19.272;2024-01-07T11:40:47;96200.72;;;3.94;100.00
77431;BME280;66498;48.564;19.272;2024-01-07T11:43:13;96198.56;;;3.91;100.00
77431;BME280;66498;48.564;19.272;2024-01-07T11:45:39;96202.75;;;3.92;100.00
77431;BME280;66498;48.564;19.272;2024-01-07T11:48:05;96193.94;;;3.93;100.00
77431;BME280;66498;48.564;19.272;2024-01-07T11:50:31;96205.03;;;3.82;100.00
77431;BME280;66498;48.564;19.272;2024-01-07T11:52:57;96199.66;;;3.76;100.00
77431;BME280;66498;48.564;19.272;2024-01-07T11:55:22;96203.97;;;3.89;100.00
77431;BME280;66498;48.564;19.272;2024-01-07T11:57:49;96201.38;;;3.89;100.00
77431;BME280;66498;48.564;19.272;2024-01-07T12:00:15;96195.66;;;3.81;100.00
77431;BME280;66498;48.564;19.272;2024-01-07T12:02:40;96196.97;;;3.90;100.00
77431;BME280;66498;48.564;19.272;2024-01-07T12:05:06;96204.75;;;3.90;100.00
77431;BME280;66498;48.564;19.272;2024-01-07T12:07:31;96197.19;;;3.88;100.00
77431;BME280;66498;48.564;19.272;2024-01-07T12:09:57;96207.34;;;3.90;100.00
77431;BME280;66498;48.564;19.272;2024-01-07T12:12:23;96196.63;;;3.79;100.00
77431;BME280;66498;48.564;19.272;2024-01-07T12:14:49;96196.06;;;3.77;100.00
77431;BME280;66498;48.564;19.272;2024-01-07T12:17:18;96204.06;;;3.76;100.00
77431;BME280;66498;48.564;19.272;2024-01-07T12:19:44;96201.34;;;3.64;100.00
77431;BME280;66498;48.564;19.272;2024-01-07T12:22:09;96202.28;;;3.70;100.00
77431;BME280;66498;48.564;19.272;2024-01-07T12:24:35;96195.53;;;3.69;100.00
77431;BME280;66498;48.564;19.272;2024-01-07T12:27:07;96198.84;;;3.76;100.00
77431;BME280;66498;48.564;19.272;2024-01-07T12:29:33;96202.66;;;3.73;100.00
77431;BME280;66498;48.564;19.272;2024-01-07T12:31:59;96198.44;;;3.79;100.00
77431;BME280;66498;48.564;19.272;2024-01-07T12:34:25;96197.28;;;3.75;100.00
77431;BME280;66498;48.564;19.272;2024-01-07T12:36:51;96193.06;;;3.81;100.00
77431;BME280;66498;48.564;19.272;2024-01-07T12:39:20;96200.78;;;3.87;100.00
77431;BME280;66498;48.564;19.272;2024-01-07T12:41:46;96200.41;;;3.84;100.00
77431;BME280;66498;48.564;19.272;2024-01-07T12:44:12;96204.59;;;3.85;100.00
77431;BME280;66498;48.564;19.272;2024-01-07T12:46:38;96204.44;;;3.79;100.00
77431;BME280;66498;48.564;19.272;2024-01-07T12:49:03;96206.22;;;3.79;100.00
77431;BME280;66498;48.564;19.272;2024-01-07T12:51:29;96199.97;;;3.87;100.00